Georgetown, DE (19947)

8:53 AM EDT on May 05, 2015 (GMT -0400)
Georgetown Admin | | Change Station
CLOSE
Current Station
Personal Weather Station
Location: Georgetown, DE
Elevation: 56 ft
Nearby Weather Stations

Elev 56 ft 38.66 °N, 75.38 °W | Updated 8 seconds ago

Clear
Clear
68.1 °F
Feels Like 68.1 °F
N
10.0
Wind Variable Wind from SW
Gusts 15.0 mph

Today
High -- | Low -- °F
--% Chance of Precip.
Yesterday
High -- | Low -- °F
Precip. -- in
5:59 AM 7:57 PM
Full, 98% visible
Pressure 30.25 in
Visibility 10.0 miles
Clouds Clear
Dew Point 56 °F
Humidity 66%
Rainfall 0.00 in
Snow Depth Not available.
UV 0 out of 12
Pollen 9.90 out of 12
Air Quality Not available.
Flu Activity Sporadic
METAR KGED 051054Z AUTO 22013KT 10SM CLR 18/13 A3025 RMK AO2 SLP241 T01780128

More Conditions Fewer Conditions

Pressure 30.25 in
Visibility 10.0 miles
Clouds Clear
Dew Point 56 °F
Humidity 66%
Rainfall 0.00 in
Snow Depth Not available.
UV 0 out of 12
Pollen 9.90 out of 12
Air Quality Not available.
Flu Activity Sporadic
METAR KGED 051054Z AUTO 22013KT 10SM CLR 18/13 A3025 RMK AO2 SLP241 T01780128

More Conditions Fewer Conditions

Nepal has a long way to go to dig out and rebuild from a devastating earthquake. We have teamed up with several charities and organizations to make contributing to the relief effort as easy as possible.
How you can help: Portlight Strategies | Red Cross

10-Day Weather Forecast

Almanac

Astronomy

May. 05, 2015 Rise Set
Actual Time
Civil Twilight
Nautical Twilight
Astronomical Twilight
Moon
Length of Visible Light
Length of Day
Tomorrow will be .
, % of the Moon is Illuminated

Today's Extremes

State Highs State Lows

Community

WunderPhotos

Upload Photos

1,818,875 photos uploaded!

WunderBlogs® & News

Nearby

Air Quality

  Air Quality AQ Index Pollutant
Not available.

Snow Depth

Station Depth Elevation

Earthquake Activity

City Distance Mag. Time & Date
Minimum magnitude displayed is 2.5.

Coastal Water Temperatures

Place Temperature

Stations

Nearby Weather Stations

Station Location Temp. Windchill Dew Point Humidity Wind Precip. Elev Updated Type